Time;durP1;ratioP1;P1;durP2;ratioP2;P2;SDS_P1;SDS_P2;PMS_P1;PMS_P2;Temp;Humidity;BMP_temperature;BMP_pressure;BME280_temperature;BME280_humidity;BME280_pressure;Samples;Min_cycle;Max_cycle;Signal;HPM_P1;HPM_P2
2023/08/06 00:06:38;;;;;;;2.97;2.30;;;;;;;15.73;81.63;99105.75;31093268;28;107775;-69
2023/08/06 00:21:38;;;;;;;3.38;2.50;;;;;;;15.70;81.59;99092.78;31091996;28;100899;-69
2023/08/06 00:36:39;;;;;;;2.42;1.70;;;;;;;15.68;82.01;99050.06;31091527;28;97084;-69
2023/08/06 00:51:39;;;;;;;2.78;1.70;;;;;;;15.66;81.62;99019.13;31087816;28;97022;-69
2023/08/06 01:06:47;;;;;;;4.75;1.38;;;;;;;15.60;81.93;98966.41;31087497;28;96624;-69
2023/08/06 01:21:47;;;;;;;5.50;1.50;;;;;;;15.54;81.67;98928.69;31086072;28;97600;-69
2023/08/06 01:36:48;;;;;;;2.05;1.45;;;;;;;15.50;81.55;98919.47;31084023;28;97988;-69
2023/08/06 01:51:48;;;;;;;2.08;1.30;;;;;;;15.46;82.07;98901.38;31084103;28;97196;-69
2023/08/06 02:06:48;;;;;;;4.75;3.28;;;;;;;15.38;82.09;98897.19;31102693;28;101052;-69
2023/08/06 02:21:49;;;;;;;0.88;0.77;;;;;;;15.18;81.79;98814.38;31103219;28;112478;-68
2023/08/06 02:36:49;;;;;;;1.90;0.88;;;;;;;15.07;82.44;98765.03;31101366;28;97140;-68
2023/08/06 02:51:49;;;;;;;0.40;0.40;;;;;;;14.98;82.41;98772.63;31099608;28;113763;-69
2023/08/06 03:06:50;;;;;;;0.65;0.35;;;;;;;14.88;82.34;98762.50;31098437;28;97438;-69
2023/08/06 03:21:51;;;;;;;0.60;0.60;;;;;;;14.84;82.64;98728.34;31096811;28;98070;-69
2023/08/06 03:36:51;;;;;;;0.60;0.50;;;;;;;14.80;83.05;98732.53;31095453;28;109163;-69
2023/08/06 03:51:51;;;;;;;2.33;1.40;;;;;;;14.75;83.04;98752.00;31094389;28;97532;-69
2023/08/06 04:06:52;;;;;;;1.10;0.22;;;;;;;14.70;83.30;98728.56;31092543;28;111355;-69
2023/08/06 04:21:52;;;;;;;0.20;0.20;;;;;;;14.69;83.36;98752.94;31089787;28;107714;-69
2023/08/06 04:36:52;;;;;;;1.92;0.50;;;;;;;14.56;82.74;98727.94;31089487;28;110221;-69
2023/08/06 04:51:53;;;;;;;0.63;0.30;;;;;;;14.54;83.15;98684.50;31087186;28;98465;-69
2023/08/06 05:06:53;;;;;;;0.47;0.30;;;;;;;14.53;83.20;98706.97;31086746;28;97018;-69
2023/08/06 05:21:53;;;;;;;0.38;0.38;;;;;;;14.52;83.32;98673.19;31081983;28;97047;-69
2023/08/06 05:36:54;;;;;;;0.30;0.30;;;;;;;14.46;83.57;98665.28;31082682;28;113970;-69
2023/08/06 05:51:54;;;;;;;0.32;0.30;;;;;;;14.47;83.69;98648.16;31080694;28;96718;-69
2023/08/06 06:06:54;;;;;;;1.65;0.30;;;;;;;14.44;83.69;98662.03;31081388;28;97431;-69
2023/08/06 06:21:57;;;;;;;0.57;0.25;;;;;;;14.49;83.69;98683.56;31082326;28;97277;-69
2023/08/06 06:36:57;;;;;;;1.60;0.40;;;;;;;14.56;83.95;98673.56;31081246;28;97585;-69
2023/08/06 06:51:58;;;;;;;0.70;0.30;;;;;;;14.72;83.62;98646.06;31094764;28;97529;-69
2023/08/06 07:06:58;;;;;;;0.85;0.20;;;;;;;14.95;83.59;98643.56;31098230;28;112722;-69
2023/08/06 07:21:58;;;;;;;2.15;0.68;;;;;;;15.07;83.49;98631.75;31095645;28;98634;-69
2023/08/06 07:36:59;;;;;;;1.27;0.30;;;;;;;15.13;82.85;98618.44;31095240;28;97144;-69
2023/08/06 07:52:01;;;;;;;0.80;0.50;;;;;;;15.16;83.13;98618.81;31092564;28;97344;-68
2023/08/06 08:07:01;;;;;;;1.17;0.90;;;;;;;15.19;83.02;98580.75;31083283;28;107840;-62
2023/08/06 08:22:01;;;;;;;0.95;0.80;;;;;;;15.30;82.52;98538.03;31078609;28;97508;-66
2023/08/06 08:37:02;;;;;;;0.80;0.80;;;;;;;15.39;82.47;98552.66;31087851;28;97231;-61
2023/08/06 08:52:06;;;;;;;1.10;0.60;;;;;;;15.45;82.08;98540.97;31080347;28;97495;-63
2023/08/06 09:07:09;;;;;;;1.00;0.50;;;;;;;15.55;82.04;98537.66;31079523;28;97415;-63
2023/08/06 09:22:13;;;;;;;1.50;0.40;;;;;;;15.47;81.86;98533.47;31075516;28;97148;-63
2023/08/06 09:37:13;;;;;;;1.10;0.47;;;;;;;15.37;82.00;98519.91;31074544;28;97034;-63
2023/08/06 09:52:15;;;;;;;1.88;0.70;;;;;;;15.31;82.21;98534.28;31040578;28;97716;-65
2023/08/06 10:07:18;;;;;;;0.60;0.50;;;;;;;15.30;82.08;98543.41;31078545;28;97580;-66
2023/08/06 10:22:18;;;;;;;0.70;0.60;;;;;;;15.43;81.94;98502.03;31086022;28;97235;-67
2023/08/06 10:37:19;;;;;;;0.98;0.47;;;;;;;15.57;81.97;98477.31;31098894;28;107935;-67
2023/08/06 10:52:19;;;;;;;0.65;0.50;;;;;;;15.83;81.51;98466.97;31098668;28;96747;-67
2023/08/06 11:07:20;;;;;;;0.73;0.65;;;;;;;16.29;80.72;98442.59;31096474;28;96751;-67
2023/08/06 11:22:22;;;;;;;2.10;0.57;;;;;;;16.20;80.46;98444.91;31095973;28;97182;-67
2023/08/06 11:37:24;;;;;;;1.43;0.87;;;;;;;16.27;80.50;98443.91;31093785;28;96993;-67
2023/08/06 11:52:25;;;;;;;1.03;0.70;;;;;;;16.33;80.15;98453.66;31092149;28;96706;-67
2023/08/06 12:07:30;;;;;;;1.53;0.70;;;;;;;16.13;79.93;98473.00;31092236;28;97310;-67
2023/08/06 12:22:34;;;;;;;1.00;0.80;;;;;;;16.18;79.93;98487.34;31091089;28;97341;-67
2023/08/06 12:37:35;;;;;;;14.47;8.97;;;;;;;16.21;80.04;98500.28;31089409;28;97310;-67
2023/08/06 12:52:35;;;;;;;2.88;1.63;;;;;;;16.18;80.00;98516.91;31088663;28;97182;-68
2023/08/06 13:07:36;;;;;;;2.25;1.05;;;;;;;16.53;79.93;98523.78;31087021;28;111508;-68
2023/08/06 13:22:36;;;;;;;1.50;1.00;;;;;;;16.30;79.55;98545.50;31085491;28;114690;-67
2023/08/06 13:37:36;;;;;;;1.70;0.80;;;;;;;16.22;79.08;98574.44;31083019;28;105222;-67
2023/08/06 13:52:37;;;;;;;1.80;0.80;;;;;;;16.22;78.85;98587.88;31087873;28;107326;-66
2023/08/06 14:07:37;;;;;;;1.50;0.80;;;;;;;16.01;79.59;98607.44;31103920;28;97187;-67
2023/08/06 14:22:37;;;;;;;2.20;1.05;;;;;;;15.99;79.62;98594.25;31104806;28;97041;-66
2023/08/06 14:37:39;;;;;;;2.35;0.80;;;;;;;16.20;79.89;98618.72;31100021;28;99701;-67
2023/08/06 14:52:39;;;;;;;1.53;1.10;;;;;;;16.22;78.94;98622.81;31098390;28;96704;-66
2023/08/06 15:07:40;;;;;;;2.53;1.25;;;;;;;16.16;78.83;98633.72;31097508;28;105278;-67
2023/08/06 15:22:40;;;;;;;2.15;1.13;;;;;;;15.99;78.85;98655.19;31096351;28;96989;-67
2023/08/06 15:37:40;;;;;;;1.80;1.30;;;;;;;15.64;79.46;98673.09;31095088;28;96725;-67
2023/08/06 15:52:40;;;;;;;3.35;2.05;;;;;;;15.47;80.19;98675.72;31094343;28;97556;-67
2023/08/06 16:07:41;;;;;;;2.67;1.75;;;;;;;15.33;80.23;98666.34;31093376;28;101004;-66
2023/08/06 16:22:41;;;;;;;3.03;2.15;;;;;;;15.34;80.43;98684.06;31091288;28;98479;-66
2023/08/06 16:37:42;;;;;;;2.92;1.95;;;;;;;15.18;80.23;98710.56;31089923;28;97349;-66
2023/08/06 16:52:42;;;;;;;3.33;1.98;;;;;;;14.98;80.48;98720.84;31088135;28;97039;-67
2023/08/06 17:07:43;;;;;;;3.38;1.67;;;;;;;14.88;80.33;98738.38;31085662;28;107705;-66
2023/08/06 17:22:44;;;;;;;3.10;1.90;;;;;;;14.83;80.83;98785.66;31083518;28;96938;-67
2023/08/06 17:37:44;;;;;;;3.63;1.98;;;;;;;14.70;80.63;98781.38;31081986;28;101227;-67
2023/08/06 17:52:45;;;;;;;2.17;1.55;;;;;;;14.54;81.04;98751.50;31081656;28;111108;-67
2023/08/06 18:07:45;;;;;;;2.53;1.70;;;;;;;14.42;80.75;98779.31;31082159;28;96665;-66
2023/08/06 18:22:46;;;;;;;2.83;1.90;;;;;;;14.29;81.28;98791.03;31082104;28;97093;-67
2023/08/06 18:37:46;;;;;;;3.58;2.10;;;;;;;14.20;81.19;98809.28;31079384;28;109492;-70
2023/08/06 18:52:49;;;;;;;3.35;1.98;;;;;;;14.03;81.67;98825.19;31100809;28;101321;-73
2023/08/06 19:07:49;;;;;;;4.27;2.93;;;;;;;14.01;82.14;98821.91;31022573;28;96904;-70
2023/08/06 19:22:50;;;;;;;4.13;2.70;;;;;;;13.98;81.98;98811.66;31019514;28;97480;-70
2023/08/06 19:37:50;;;;;;;3.97;3.15;;;;;;;13.97;82.36;98785.91;31085512;28;96734;-70
2023/08/06 19:52:51;;;;;;;4.95;3.08;;;;;;;13.87;82.44;98795.31;31087312;28;113104;-69
2023/08/06 20:07:51;;;;;;;6.28;3.28;;;;;;;13.85;82.94;98786.69;31085302;28;98460;-71
2023/08/06 20:22:51;;;;;;;6.38;3.35;;;;;;;13.83;82.89;98804.84;31082166;28;109894;-68
2023/08/06 20:37:52;;;;;;;4.97;3.00;;;;;;;13.79;82.85;98813.53;31080922;28;110739;-71
2023/08/06 20:52:52;;;;;;;5.00;3.00;;;;;;;13.70;82.87;98813.03;31029321;28;97198;-68
2023/08/06 21:07:52;;;;;;;4.38;2.83;;;;;;;13.70;83.40;98837.13;30963358;28;97386;-72
2023/08/06 21:22:53;;;;;;;4.13;3.00;;;;;;;13.66;83.23;98847.44;30962137;28;105625;-68
2023/08/06 21:37:53;;;;;;;3.60;2.70;;;;;;;13.60;83.26;98852.88;30961889;28;110653;-71
2023/08/06 21:52:53;;;;;;;4.93;3.15;;;;;;;13.54;83.25;98866.13;30961511;28;97170;-72
2023/08/06 22:07:54;;;;;;;4.65;2.50;;;;;;;13.45;83.54;98856.75;30959640;28;96725;-69
2023/08/06 22:22:54;;;;;;;6.07;3.05;;;;;;;13.35;83.40;98841.22;30976620;28;108053;-71
2023/08/06 22:37:54;;;;;;;3.90;2.50;;;;;;;13.25;83.57;98845.41;31042634;28;112139;-71
2023/08/06 22:52:55;;;;;;;3.75;2.58;;;;;;;13.16;83.53;98842.16;31101328;28;96786;-69
2023/08/06 23:07:55;;;;;;;3.70;2.50;;;;;;;13.10;83.66;98849.22;31100243;28;111194;-72
2023/08/06 23:22:55;;;;;;;4.45;2.63;;;;;;;13.01;83.62;98848.69;31097831;28;97348;-71
2023/08/06 23:37:56;;;;;;;4.47;3.10;;;;;;;12.90;83.98;98844.03;31096185;28;115077;-71
2023/08/06 23:52:56;;;;;;;3.53;2.47;;;;;;;12.93;83.98;98861.50;31096439;28;97013;-70
